Theodore, Alabama
Current Conditions -  °F | °C
As of 3:53 PM on Tuesday 21 Oct 2014 (Local Time) from KBFM Reporting Station
Clear Clear  
Wind Chill: 80°   Ceiling: Unl
Heat Index: 80°   Visibility: 10mi
Dew Point: 52°   Wind: 8mph
Humidity: 38%   Direction: 10°N
Pressure: 29.98"   Gusts: NA
Location:  30.55°N, 88.18°W
Report Text: KBFM 212053Z 01007KT 10SM CLR 27/11 A2998 RMK AO2 SLP150 T02670111 56020
Loading
Personal Weather Stations






























Interactive Weather Map New forecast layout! Learn more

10-Day Weather Forecast

Advertisements
Track Severe Weather on mobile